Time;durP1;ratioP1;P1;durP2;ratioP2;P2;SDS_P1;SDS_P2;PMS_P1;PMS_P2;Temp;Humidity;BMP_temperature;BMP_pressure;BME280_temperature;BME280_humidity;BME280_pressure;Samples;Min_cycle;Max_cycle;Signal;HPM_P1;HPM_P2
2022/06/06 00:03:30;;;;;;;0.63;0.57;;;19.20;88.10;;;17.92;58.94;100098.00;10522114;27;97691;-80
2022/06/06 00:08:33;;;;;;;1.02;0.70;;;19.10;88.80;;;17.89;59.82;100076.97;10542226;27;96584;-80
2022/06/06 00:13:38;;;;;;;1.10;0.50;;;19.10;89.80;;;17.84;59.37;100052.59;10523756;27;96537;-80
2022/06/06 00:18:42;;;;;;;0.68;0.60;;;19.10;89.50;;;17.82;59.73;100043.13;10521308;27;96671;-80
2022/06/06 00:23:46;;;;;;;0.60;0.60;;;19.10;89.60;;;17.76;60.15;100055.56;10540547;27;96894;-80
2022/06/06 00:28:49;;;;;;;1.58;1.13;;;19.00;89.40;;;17.67;60.21;100048.75;10542877;27;96614;-80
2022/06/06 00:39:17;;;;;;;0.50;0.40;;;18.90;90.20;;;17.57;60.73;100062.69;10539743;27;98179;-80
2022/06/06 00:44:30;;;;;;;0.50;0.30;;;18.80;90.00;;;17.56;60.79;100069.09;10542071;27;96454;-80
2022/06/06 00:49:38;;;;;;;0.40;0.30;;;18.80;90.10;;;17.56;60.49;100087.06;10514076;27;98157;-80
2022/06/06 00:54:43;;;;;;;1.95;0.95;;;18.80;90.00;;;17.52;60.23;100088.56;10521965;27;96567;-80
2022/06/06 00:59:47;;;;;;;1.10;0.70;;;18.80;89.90;;;17.46;60.38;100095.63;10517997;27;98310;-80
2022/06/06 01:04:53;;;;;;;1.92;0.85;;;18.70;90.10;;;17.45;61.26;100096.63;10518155;27;96665;-80
2022/06/06 01:09:56;;;;;;;0.65;0.52;;;18.70;90.30;;;17.46;61.08;100102.84;10494632;27;97583;-80
2022/06/06 01:15:05;;;;;;;0.40;0.40;;;18.70;90.50;;;17.45;61.85;100112.75;10534352;27;96540;-81
2022/06/06 01:20:41;;;;;;;0.93;0.65;;;18.60;90.80;;;17.46;60.77;100125.16;10526408;27;96649;-80
2022/06/06 01:26:12;;;;;;;1.35;0.38;;;18.60;89.30;;;17.52;60.97;100139.59;10547576;27;96530;-80
2022/06/06 01:32:12;;;;;;;0.52;0.40;;;18.70;90.50;;;17.58;61.38;100160.25;10543420;27;97099;-80
2022/06/06 01:37:33;;;;;;;1.40;0.80;;;18.70;90.60;;;17.63;60.94;100157.72;10496850;27;98813;-80
2022/06/06 01:43:00;;;;;;;0.52;0.50;;;18.70;90.20;;;17.67;60.84;100175.06;10528325;27;97307;-80
2022/06/06 01:48:24;;;;;;;0.45;0.40;;;18.80;90.40;;;17.71;60.37;100188.91;10514561;27;97638;-80
2022/06/06 01:53:34;;;;;;;0.73;0.55;;;18.80;90.00;;;17.73;60.60;100198.41;10512148;27;96677;-80
2022/06/06 01:58:37;;;;;;;2.85;0.52;;;18.80;90.10;;;17.74;60.00;100202.75;10547842;27;96504;-80
2022/06/06 02:03:40;;;;;;;0.50;0.45;;;18.80;88.60;;;17.74;59.31;100204.63;10525629;27;96886;-80
2022/06/06 02:08:45;;;;;;;0.73;0.40;;;18.80;88.80;;;17.74;59.21;100229.63;10527823;27;98197;-80
2022/06/06 02:13:48;;;;;;;0.65;0.47;;;18.80;88.40;;;17.78;58.93;100230.03;10510222;27;96587;-80
2022/06/06 02:18:51;;;;;;;0.80;0.50;;;18.80;88.40;;;17.80;59.45;100214.50;10519089;27;96685;-80
2022/06/06 02:23:54;;;;;;;0.50;0.40;;;18.90;89.00;;;17.85;59.15;100195.88;10543525;27;96761;-80
2022/06/06 02:28:57;;;;;;;0.68;0.50;;;18.90;88.00;;;17.88;59.14;100176.63;10544993;27;96489;-80
2022/06/06 02:34:01;;;;;;;0.47;0.30;;;18.90;88.50;;;17.91;58.79;100168.94;10498542;27;97642;-80
2022/06/06 02:39:03;;;;;;;1.45;0.90;;;19.00;88.40;;;17.91;58.68;100171.63;10537774;27;98494;-80
2022/06/06 02:44:06;;;;;;;0.98;0.57;;;19.00;87.90;;;17.89;58.39;100173.72;10511208;27;96479;-80
2022/06/06 02:49:09;;;;;;;0.47;0.25;;;19.00;87.20;;;17.85;58.72;100188.63;10511283;27;96557;-80
2022/06/06 02:54:12;;;;;;;0.82;0.68;;;18.90;87.50;;;17.85;58.44;100183.25;10503109;27;96370;-79
2022/06/06 02:59:19;;;;;;;0.57;0.35;;;18.90;87.20;;;17.82;58.53;100191.78;10529404;27;96722;-79
2022/06/06 03:04:22;;;;;;;0.85;0.40;;;18.90;87.60;;;17.83;58.11;100197.97;10501322;27;96675;-79
2022/06/06 03:10:05;;;;;;;1.38;0.63;;;18.90;86.70;;;17.79;58.01;100191.34;10545054;27;96838;-79
2022/06/06 03:15:31;;;;;;;1.13;0.73;;;18.90;87.00;;;17.71;58.62;100181.66;10503463;27;98508;-80
2022/06/06 03:21:02;;;;;;;0.47;0.25;;;18.80;86.90;;;17.68;58.56;100190.13;10501954;27;96707;-79
2022/06/06 03:26:38;;;;;;;1.20;0.43;;;18.80;87.30;;;17.67;58.92;100183.94;10503013;27;96462;-79
2022/06/06 03:32:19;;;;;;;0.63;0.50;;;18.80;87.80;;;17.71;59.48;100180.84;10513673;27;97379;-80
2022/06/06 03:38:03;;;;;;;0.85;0.60;;;18.80;88.60;;;17.71;60.60;100152.09;10494426;27;96861;-80
2022/06/06 03:43:15;;;;;;;0.47;0.47;;;18.90;90.00;;;17.69;61.66;100161.41;10542313;27;96660;-80
2022/06/06 03:48:54;;;;;;;1.15;0.43;;;18.90;90.80;;;17.63;62.17;100163.06;10541363;27;97525;-80
2022/06/06 03:54:19;;;;;;;1.00;0.57;;;18.80;91.10;;;17.61;62.10;100149.88;10542658;27;96644;-80
2022/06/06 03:59:26;;;;;;;0.90;0.80;;;18.80;90.70;;;17.61;62.86;100152.56;10520864;27;96684;-78
2022/06/06 04:04:31;;;;;;;1.38;0.80;;;18.80;91.10;;;17.66;63.14;100152.75;10500987;27;96663;-78
2022/06/06 04:09:36;;;;;;;1.02;0.68;;;18.90;91.50;;;17.69;63.54;100146.09;10532279;27;96493;-78
2022/06/06 04:15:08;;;;;;;0.85;0.73;;;18.90;91.40;;;17.75;62.77;100144.44;10523940;27;96628;-79
2022/06/06 04:20:21;;;;;;;1.08;0.85;;;19.00;91.30;;;17.80;63.13;100147.31;10516091;27;96632;-78
2022/06/06 04:25:34;;;;;;;0.82;0.50;;;19.00;91.70;;;17.81;62.31;100144.44;10524149;27;96566;-79
2022/06/06 04:31:13;;;;;;;0.70;0.60;;;19.00;90.90;;;17.88;63.09;100139.81;10520188;27;97132;-79
2022/06/06 04:37:04;;;;;;;1.00;0.60;;;19.00;91.70;;;17.95;63.14;100142.47;10447587;27;96919;-79
2022/06/06 04:42:42;;;;;;;0.75;0.50;;;19.20;91.80;;;18.00;63.44;100142.66;10525068;27;96820;-79
2022/06/06 04:47:47;;;;;;;1.65;1.13;;;19.20;91.80;;;18.09;64.56;100156.63;10498410;27;97367;-79
2022/06/06 04:53:03;;;;;;;1.45;1.02;;;19.30;92.60;;;18.15;63.69;100161.13;10493123;27;97636;-79
2022/06/06 04:58:08;;;;;;;0.88;0.60;;;19.30;92.10;;;18.18;63.66;100150.78;10520585;27;98418;-78
2022/06/06 05:03:12;;;;;;;0.63;0.52;;;19.40;92.10;;;18.22;63.86;100167.28;10520834;27;97991;-77
2022/06/06 05:08:52;;;;;;;1.10;0.70;;;19.50;92.40;;;18.19;63.67;100160.50;10520370;27;96683;-78
2022/06/06 05:14:25;;;;;;;0.65;0.57;;;19.40;92.20;;;18.25;64.32;100179.50;10539846;27;97129;-78
2022/06/06 05:20:26;;;;;;;1.40;0.73;;;19.50;92.60;;;18.29;65.11;100184.22;10536046;27;96955;-78
2022/06/06 05:25:45;;;;;;;0.60;0.60;;;19.50;92.90;;;18.35;65.50;100183.34;10521931;27;96972;-78
2022/06/06 05:31:01;;;;;;;1.70;0.90;;;19.60;93.00;;;18.40;65.82;100190.75;10501440;27;98283;-78
2022/06/06 05:36:38;;;;;;;1.75;0.60;;;19.60;93.20;;;18.54;66.05;100196.84;10473704;27;96613;-78
2022/06/06 05:42:15;;;;;;;0.80;0.52;;;19.80;93.50;;;18.69;64.91;100208.13;10539567;27;96627;-78
2022/06/06 05:47:57;;;;;;;2.63;0.82;;;19.90;93.00;;;18.79;63.83;100195.00;10538233;27;96450;-78
2022/06/06 05:53:26;;;;;;;0.98;0.70;;;20.00;92.60;;;18.92;64.72;100200.25;10523065;27;96928;-78
2022/06/06 05:59:00;;;;;;;1.10;0.70;;;20.10;93.30;;;19.05;63.49;100209.25;10484300;27;96740;-78
2022/06/06 06:04:40;;;;;;;0.85;0.43;;;20.20;92.50;;;19.13;62.10;100206.25;10529083;27;96662;-79
2022/06/06 06:09:51;;;;;;;0.80;0.70;;;20.30;91.60;;;19.21;61.19;100220.25;10520254;27;98240;-79
2022/06/06 06:15:29;;;;;;;0.30;0.30;;;20.30;91.20;;;19.29;60.70;100215.63;10515331;27;98213;-79
2022/06/06 06:20:41;;;;;;;0.77;0.50;;;20.40;91.00;;;19.33;61.36;100214.94;10535031;27;97543;-78
2022/06/06 06:25:46;;;;;;;0.70;0.60;;;20.40;91.50;;;19.42;62.00;100224.34;10517452;27;98771;-79
2022/06/06 06:31:12;;;;;;;0.90;0.60;;;20.50;91.70;;;19.44;61.00;100218.78;10528904;27;97458;-87
2022/06/06 06:36:42;;;;;;;0.43;0.40;;;20.50;91.30;;;19.46;61.53;100224.75;10505797;27;97915;-87
2022/06/06 06:41:54;;;;;;;0.63;0.53;;;20.50;91.70;;;19.49;61.01;100219.75;10540020;27;96642;-80
2022/06/06 06:47:04;;;;;;;2.20;1.05;;;20.60;90.90;;;19.49;60.79;100233.22;10543405;27;96755;-82
2022/06/06 06:52:31;;;;;;;2.45;1.30;;;20.60;91.20;;;19.57;61.39;100232.06;10524808;27;98152;-80
2022/06/06 06:58:37;;;;;;;1.70;1.13;;;20.70;91.70;;;19.70;62.22;100231.13;10535649;27;96602;-82
2022/06/06 07:09:54;;;;;;;1.58;0.85;;;20.90;90.70;;;19.83;58.91;100228.25;10522389;27;97477;-80
2022/06/06 07:15:30;;;;;;;1.00;0.75;;;20.90;89.90;;;19.89;58.85;100229.22;10527163;27;96776;-81
2022/06/06 07:20:35;;;;;;;1.50;0.95;;;21.00;89.90;;;19.99;59.16;100227.63;10539660;27;96578;-80
2022/06/06 07:25:49;;;;;;;0.50;0.40;;;21.00;90.10;;;20.14;58.81;100227.19;10508604;27;97638;-81
2022/06/06 07:31:14;;;;;;;3.42;1.17;;;21.20;90.00;;;20.29;59.09;100226.78;10514052;27;97451;-82
2022/06/06 07:36:35;;;;;;;1.45;0.95;;;21.30;90.00;;;20.41;57.58;100234.91;10543588;27;96737;-85
2022/06/06 07:42:05;;;;;;;0.73;0.70;;;21.50;87.90;;;20.57;56.62;100235.09;10525689;27;97812;-83
2022/06/06 07:47:38;;;;;;;1.02;0.70;;;21.60;86.40;;;20.69;55.76;100231.56;10524838;27;96660;-86
2022/06/06 07:53:03;;;;;;;2.08;0.88;;;21.70;85.10;;;20.79;55.75;100237.22;10541972;27;96567;-83
2022/06/06 07:58:36;;;;;;;1.15;0.57;;;21.80;85.90;;;20.87;54.85;100239.59;10523041;27;96739;-81
2022/06/06 08:03:50;;;;;;;1.65;1.45;;;21.90;85.20;;;20.94;53.47;100234.06;10520084;27;97491;-81
2022/06/06 08:09:02;;;;;;;0.70;0.55;;;22.00;83.50;;;21.03;54.91;100233.44;10534882;27;97046;-80
2022/06/06 08:14:17;;;;;;;1.88;0.95;;;22.20;84.60;;;21.21;55.17;100234.38;10525654;27;98572;-79
2022/06/06 08:19:48;;;;;;;1.85;0.47;;;22.30;84.80;;;21.38;54.09;100238.03;10538346;27;96707;-81
2022/06/06 08:25:02;;;;;;;1.65;0.93;;;22.50;84.00;;;21.49;53.78;100234.50;10540335;27;96616;-81
2022/06/06 08:30:10;;;;;;;0.68;0.68;;;22.60;82.50;;;21.58;52.60;100234.94;10507146;27;97019;-83
2022/06/06 08:35:25;;;;;;;0.98;0.70;;;22.70;78.30;;;21.56;52.28;100229.75;10539348;27;96942;-82
2022/06/06 08:40:52;;;;;;;1.05;0.70;;;22.60;79.40;;;21.50;51.35;100228.03;10521685;27;96721;-83
2022/06/06 08:46:20;;;;;;;0.50;0.50;;;22.60;77.20;;;21.63;52.61;100216.94;10530962;27;96941;-87
2022/06/06 08:51:52;;;;;;;1.13;0.50;;;22.60;80.20;;;22.00;52.30;100221.13;10517143;27;96820;-85
2022/06/06 08:57:01;;;;;;;0.70;0.52;;;22.90;79.30;;;22.29;50.12;100214.66;10531364;27;96666;-82
2022/06/06 09:02:43;;;;;;;0.57;0.57;;;23.20;76.40;;;22.61;49.81;100206.81;10510326;27;96669;-82
2022/06/06 09:08:25;;;;;;;0.70;0.65;;;23.50;77.20;;;22.98;47.99;100200.88;10515789;27;96553;-82
2022/06/06 09:14:08;;;;;;;1.08;0.80;;;23.90;72.80;;;23.33;47.71;100202.41;10531736;27;98235;-81
2022/06/06 09:20:01;;;;;;;0.93;0.70;;;24.20;74.90;;;23.63;46.23;100191.16;10527031;27;98322;-82
2022/06/06 09:25:48;;;;;;;1.42;0.55;;;24.50;70.60;;;23.77;44.82;100182.38;10508088;27;96688;-81
2022/06/06 09:31:21;;;;;;;2.20;0.85;;;24.70;67.60;;;24.04;45.54;100184.25;10487728;27;96695;-81
2022/06/06 09:36:47;;;;;;;1.13;0.70;;;24.90;70.50;;;24.32;44.86;100176.91;10534506;27;96578;-85
2022/06/06 09:42:27;;;;;;;0.82;0.63;;;25.20;68.60;;;24.36;42.12;100168.03;10523550;27;96656;-83
2022/06/06 09:48:07;;;;;;;2.08;0.95;;;25.40;63.80;;;24.40;42.79;100173.75;10538883;27;96892;-86
2022/06/06 09:53:31;;;;;;;1.30;0.70;;;25.40;65.10;;;24.47;41.14;100169.75;10526080;27;97120;-83
2022/06/06 09:59:36;;;;;;;1.55;1.05;;;25.40;61.30;;;24.67;42.10;100169.06;10545027;27;98446;-83
2022/06/06 10:04:57;;;;;;;0.65;0.60;;;25.50;64.00;;;24.90;40.83;100158.88;10513356;27;98519;-80
2022/06/06 10:10:43;;;;;;;0.80;0.50;;;25.80;60.70;;;25.01;38.76;100153.25;10541709;27;97320;-81
2022/06/06 10:16:10;;;;;;;1.00;0.82;;;25.90;59.10;;;25.19;39.53;100137.56;10539847;27;98408;-81
2022/06/06 10:21:43;;;;;;;0.80;0.60;;;26.00;60.40;;;25.40;37.66;100144.72;10541086;27;96634;-83
2022/06/06 10:27:17;;;;;;;0.88;0.52;;;26.30;56.60;;;25.62;38.85;100134.44;10526577;27;96541;-82
2022/06/06 10:33:02;;;;;;;2.30;0.70;;;26.50;59.90;;;25.78;37.70;100132.59;10541616;27;97744;-82
2022/06/06 10:38:20;;;;;;;1.73;0.70;;;26.70;54.90;;;25.93;37.25;100125.56;10493212;27;98705;-82
2022/06/06 10:43:59;;;;;;;1.08;0.70;;;26.80;56.80;;;26.11;36.84;100125.81;10530561;27;98145;-82
2022/06/06 10:49:39;;;;;;;0.88;0.68;;;27.00;55.60;;;26.21;34.96;100130.47;10523214;27;97787;-83
2022/06/06 10:55:10;;;;;;;0.80;0.60;;;27.10;53.80;;;26.32;36.05;100115.72;10542079;27;96772;-82
2022/06/06 11:00:59;;;;;;;1.08;0.88;;;27.20;55.10;;;26.63;36.44;100119.28;10534916;27;97028;-82
2022/06/06 11:06:58;;;;;;;0.77;0.57;;;27.50;54.70;;;26.81;34.55;100108.84;10511292;27;96828;-90
2022/06/06 11:12:37;;;;;;;1.08;0.70;;;27.70;51.70;;;26.81;34.23;100106.13;10536448;27;96894;-90
2022/06/06 11:18:29;;;;;;;1.33;0.55;;;27.80;53.80;;;26.84;34.31;100098.22;10540303;27;96837;-80
2022/06/06 11:23:50;;;;;;;0.93;0.73;;;27.80;53.70;;;27.00;34.40;100098.97;10533440;27;97479;-80
2022/06/06 11:29:46;;;;;;;2.80;1.17;;;27.90;52.20;;;27.14;33.60;100089.13;10540316;27;97398;-81
2022/06/06 11:35:26;;;;;;;0.63;0.60;;;28.00;51.70;;;27.24;31.83;100096.44;10526311;27;98615;-81
2022/06/06 11:41:06;;;;;;;1.63;0.50;;;28.10;48.80;;;27.30;32.91;100078.94;10507236;27;96558;-81
2022/06/06 11:46:36;;;;;;;0.60;0.40;;;28.20;51.00;;;27.51;33.29;100076.91;10531735;27;97279;-81
2022/06/06 11:52:32;;;;;;;4.57;1.55;;;28.30;51.10;;;27.71;32.49;100079.53;10522632;27;98431;-82
2022/06/06 11:58:17;;;;;;;1.38;0.80;;;28.60;49.20;;;27.85;33.14;100071.50;10527958;27;97264;-81
2022/06/06 12:03:57;;;;;;;1.10;0.80;;;28.70;51.30;;;28.09;34.75;100062.56;10523847;27;96821;-81
2022/06/06 12:09:04;;;;;;;;;;;28.90;53.40;;;28.41;33.61;100054.63;10536157;27;97481;-82
2022/06/06 12:14:43;;;;;;;1.13;0.70;;;29.30;51.20;;;28.58;33.06;100045.16;10541627;27;96592;-81
2022/06/06 12:19:58;;;;;;;1.75;0.98;;;29.40;51.10;;;28.63;33.58;100040.44;10497787;27;96688;-82
2022/06/06 12:25:13;;;;;;;0.65;0.60;;;29.40;52.00;;;28.68;32.84;100036.84;10533855;27;96676;-83
2022/06/06 12:30:56;;;;;;;0.50;0.50;;;29.50;50.40;;;28.73;31.84;100026.66;10527616;27;96772;-84
2022/06/06 12:36:15;;;;;;;1.20;0.68;;;29.60;48.60;;;28.92;34.22;100026.72;10536462;27;96667;-83
2022/06/06 12:41:34;;;;;;;1.45;0.93;;;30.00;52.00;;;29.20;33.98;100021.41;10539324;27;96670;-83
2022/06/06 12:46:53;;;;;;;;;;;30.40;52.10;;;29.51;34.03;100024.50;10514542;27;96623;-83
2022/06/06 12:52:14;;;;;;;1.20;0.65;;;30.80;51.50;;;29.66;31.50;100026.19;10522593;27;97964;-82
2022/06/06 12:57:34;;;;;;;1.10;0.50;;;31.00;49.30;;;29.45;31.98;100025.66;10520225;27;97487;-83
2022/06/06 13:03:15;;;;;;;1.23;0.57;;;30.90;49.70;;;29.47;32.20;100012.50;10501777;27;96803;-83
2022/06/06 13:09:04;;;;;;;0.98;0.52;;;30.90;50.00;;;29.40;32.79;100012.91;10528180;27;96774;-83
2022/06/06 13:14:54;;;;;;;0.67;0.50;;;30.90;49.50;;;29.54;32.65;100005.56;10519151;27;98758;-83
2022/06/06 13:20:17;;;;;;;0.50;0.50;;;30.80;49.80;;;29.73;32.01;100007.47;10465316;27;97052;-83
2022/06/06 13:26:19;;;;;;;0.63;0.50;;;30.80;49.70;;;29.71;30.07;99996.00;10512237;27;96547;-82
2022/06/06 13:31:37;;;;;;;0.90;0.70;;;30.70;46.50;;;29.59;30.88;99999.22;10513954;27;96644;-81
2022/06/06 13:37:21;;;;;;;1.27;0.80;;;30.40;48.60;;;29.38;31.00;99995.94;10523231;27;98681;-81
2022/06/06 13:42:55;;;;;;;1.42;0.57;;;30.20;48.60;;;29.57;31.55;99994.03;10531723;27;97400;-81
2022/06/06 13:48:36;;;;;;;1.60;0.75;;;30.20;48.20;;;29.54;30.61;99997.38;10543902;27;96577;-81
2022/06/06 13:54:02;;;;;;;0.80;0.60;;;30.20;46.30;;;29.46;30.33;99992.53;10514997;27;96712;-80
2022/06/06 13:59:29;;;;;;;0.77;0.65;;;30.20;48.10;;;29.58;30.12;99990.19;10537478;27;98423;-80
2022/06/06 14:05:20;;;;;;;0.88;0.63;;;30.30;46.50;;;29.65;30.36;99994.47;10536154;27;98834;-81
2022/06/06 14:10:56;;;;;;;0.85;0.60;;;30.30;47.40;;;29.39;29.85;99986.66;10541527;27;96630;-81
2022/06/06 14:16:01;;;;;;;0.75;0.65;;;30.20;47.40;;;29.46;31.28;99981.59;10473356;27;96671;-81
2022/06/06 14:21:05;;;;;;;1.63;0.65;;;30.20;48.60;;;29.36;31.24;99986.41;10499453;27;96660;-80
2022/06/06 14:26:13;;;;;;;1.15;0.70;;;30.00;48.50;;;29.19;31.83;99982.28;10503453;27;96705;-80
2022/06/06 14:31:27;;;;;;;0.87;0.57;;;29.90;49.10;;;29.12;31.87;99981.84;10501168;27;96720;-84
2022/06/06 14:36:30;;;;;;;1.05;0.88;;;29.80;48.90;;;29.18;32.36;99982.56;10495536;27;97459;-83
2022/06/06 14:41:51;;;;;;;1.45;1.08;;;29.90;49.20;;;29.11;31.22;99988.44;10484675;27;98007;-83
2022/06/06 14:47:13;;;;;;;1.25;0.70;;;29.80;49.00;;;28.88;32.35;99976.41;10500843;27;96578;-81
2022/06/06 14:52:20;;;;;;;1.42;0.88;;;29.60;48.90;;;28.82;32.66;99971.31;10500105;27;96897;-82
2022/06/06 14:57:30;;;;;;;1.27;0.73;;;29.40;49.70;;;28.71;33.71;99981.56;10498971;27;97405;-80
2022/06/06 15:02:34;;;;;;;1.10;0.63;;;29.40;51.20;;;28.49;34.03;99982.94;10494390;27;96783;-80
2022/06/06 15:07:58;;;;;;;1.17;0.55;;;29.10;51.10;;;28.33;34.76;99970.56;10493462;27;97468;-80
2022/06/06 15:13:02;;;;;;;1.73;0.60;;;29.00;51.70;;;28.36;35.27;99972.69;10494648;27;97608;-81
2022/06/06 15:18:06;;;;;;;1.77;0.85;;;29.00;53.00;;;28.47;35.43;99970.66;10526540;27;96624;-81
2022/06/06 15:23:18;;;;;;;1.65;0.95;;;29.10;53.10;;;28.63;34.45;99960.34;10508133;27;97613;-81
2022/06/06 15:28:31;;;;;;;1.42;0.77;;;29.20;51.50;;;28.61;33.20;99957.91;10499136;27;97449;-80
2022/06/06 15:34:00;;;;;;;0.63;0.50;;;29.20;48.70;;;28.54;33.60;99962.91;10498409;27;97812;-81
2022/06/06 15:39:48;;;;;;;0.77;0.57;;;29.10;50.50;;;28.35;32.83;99968.34;10479400;27;98544;-78
2022/06/06 15:45:00;;;;;;;0.95;0.70;;;29.00;49.20;;;28.29;33.57;99964.00;10497006;27;96686;-81
2022/06/06 15:50:22;;;;;;;2.05;0.77;;;28.90;50.40;;;28.28;33.39;99963.19;10510965;27;96608;-81
2022/06/06 15:55:52;;;;;;;1.10;0.75;;;28.80;49.80;;;28.39;34.49;99963.09;10499175;27;97272;-81
2022/06/06 16:01:27;;;;;;;0.70;0.70;;;29.00;51.50;;;28.45;35.12;99957.28;10503993;27;96731;-80
2022/06/06 16:06:35;;;;;;;1.10;0.93;;;29.10;52.40;;;28.39;35.13;99963.91;10479028;27;96511;-81
2022/06/06 16:11:53;;;;;;;0.93;0.70;;;29.10;51.70;;;28.18;35.35;99963.28;10495759;27;100139;-81
2022/06/06 16:17:00;;;;;;;0.98;0.70;;;28.90;52.30;;;28.05;35.81;99964.00;10527371;27;97044;-80
2022/06/06 16:22:13;;;;;;;1.40;0.90;;;28.80;52.80;;;27.87;35.17;99975.66;10523249;27;96882;-80
2022/06/06 16:27:47;;;;;;;4.07;0.73;;;28.70;52.00;;;27.73;35.20;99973.59;10520882;27;97289;-81
2022/06/06 16:32:56;;;;;;;1.40;0.80;;;28.50;51.40;;;27.72;34.69;99976.63;10503984;27;97395;-90
2022/06/06 16:38:15;;;;;;;1.10;0.80;;;28.50;51.50;;;27.58;34.81;99978.31;10512898;27;98544;-88
2022/06/06 16:48:56;;;;;;;1.38;0.90;;;28.30;50.90;;;27.55;38.25;99978.91;10536976;27;96868;-88
2022/06/06 16:54:39;;;;;;;1.02;0.80;;;28.30;54.90;;;27.62;37.91;99977.47;10520247;27;96669;-89
2022/06/06 16:59:46;;;;;;;1.02;0.68;;;28.40;55.00;;;27.44;38.76;99980.91;10539350;27;96649;-90
2022/06/06 17:05:18;;;;;;;0.57;0.47;;;28.30;55.10;;;27.07;39.78;99979.53;10518744;27;97734;-82
2022/06/06 17:10:44;;;;;;;1.23;0.77;;;28.00;56.20;;;26.49;42.38;99976.50;10506429;27;96716;-84
2022/06/06 17:15:51;;;;;;;1.50;1.30;;;27.60;59.10;;;26.15;44.91;99970.88;10502341;27;97113;-83
2022/06/06 17:21:00;;;;;;;1.00;0.70;;;27.10;62.40;;;26.01;46.09;99977.97;10521198;27;97378;-81
2022/06/06 17:26:38;;;;;;;0.60;0.52;;;27.00;63.00;;;25.89;47.60;99981.81;10504999;27;97548;-82
2022/06/06 17:32:02;;;;;;;0.90;0.70;;;26.90;64.90;;;25.79;48.02;99984.56;10519107;27;97123;-81
2022/06/06 17:37:31;;;;;;;0.73;0.40;;;26.80;66.10;;;25.54;48.96;99977.16;10522677;27;96664;-80
2022/06/06 17:42:47;;;;;;;0.70;0.57;;;26.50;66.60;;;25.29;49.55;99983.41;10538699;27;97020;-79
2022/06/06 17:48:17;;;;;;;0.70;0.40;;;26.20;67.00;;;24.96;51.13;99987.41;10523618;27;97399;-79
2022/06/06 17:54:17;;;;;;;1.10;0.63;;;25.90;69.00;;;24.63;52.19;99987.81;10540769;27;96640;-79
2022/06/06 17:59:38;;;;;;;0.90;0.43;;;25.60;69.70;;;24.36;52.80;99993.41;10482480;27;98615;-79
2022/06/06 18:05:14;;;;;;;0.73;0.52;;;25.30;70.50;;;24.17;53.82;99991.09;10539591;27;97199;-79
2022/06/06 18:10:28;;;;;;;0.55;0.30;;;25.10;71.70;;;23.95;54.72;99988.53;10506642;27;98208;-79
2022/06/06 18:16:03;;;;;;;0.70;0.60;;;24.90;72.70;;;23.76;55.13;100001.69;10507659;27;96593;-79
2022/06/06 18:21:19;;;;;;;1.40;0.50;;;24.70;73.70;;;23.58;55.74;99993.91;10541902;27;96574;-79
2022/06/06 18:26:27;;;;;;;0.68;0.60;;;24.60;73.60;;;23.44;56.93;99992.69;10528578;27;96702;-79
2022/06/06 18:31:47;;;;;;;0.93;0.50;;;24.40;74.80;;;23.28;57.43;100004.47;10546222;27;96925;-79
2022/06/06 18:36:52;;;;;;;0.65;0.30;;;24.30;75.60;;;23.10;57.64;100001.03;10528022;27;96583;-79
2022/06/06 18:42:05;;;;;;;0.50;0.30;;;24.10;75.80;;;22.93;58.26;99997.59;10526013;27;97993;-79
2022/06/06 18:47:40;;;;;;;1.05;0.40;;;23.90;75.70;;;22.73;58.52;100002.72;10541977;27;98474;-79
2022/06/06 18:52:46;;;;;;;0.95;0.50;;;23.70;77.90;;;22.55;58.81;100012.84;10523812;27;96806;-79
2022/06/06 18:58:15;;;;;;;0.60;0.30;;;23.60;78.50;;;22.37;59.20;100004.97;10541552;27;97705;-80
2022/06/06 19:03:39;;;;;;;0.38;0.20;;;23.40;79.20;;;22.22;59.66;100002.88;10527943;27;96694;-80
2022/06/06 19:08:55;;;;;;;0.47;0.47;;;23.20;79.60;;;22.07;59.87;100017.00;10525815;27;96708;-80
2022/06/06 19:14:12;;;;;;;0.55;0.40;;;23.10;80.00;;;21.95;60.43;100023.53;10538185;27;96578;-79
2022/06/06 19:19:24;;;;;;;1.23;0.40;;;23.00;80.20;;;21.81;60.59;100025.75;10531453;27;97511;-79
2022/06/06 19:24:31;;;;;;;0.43;0.43;;;22.80;80.70;;;21.70;61.12;100026.66;10529697;27;96878;-79
2022/06/06 19:29:42;;;;;;;0.43;0.30;;;22.80;81.50;;;21.57;61.55;100031.31;10522288;27;97447;-81
2022/06/06 19:35:15;;;;;;;0.30;0.20;;;22.60;82.20;;;21.50;61.86;100033.38;10526782;27;97424;-81
2022/06/06 19:40:17;;;;;;;1.27;0.50;;;22.60;82.80;;;21.39;62.36;100026.13;10534704;27;97307;-79
2022/06/06 19:45:52;;;;;;;0.17;0.17;;;22.50;84.20;;;21.29;62.82;100026.78;10537698;27;98492;-80
2022/06/06 19:51:06;;;;;;;0.30;0.20;;;22.40;85.10;;;21.19;63.14;100023.03;10523385;27;97281;-79
2022/06/06 19:56:41;;;;;;;0.20;0.10;;;22.30;85.30;;;21.08;63.76;100030.13;10522278;27;97308;-80
2022/06/06 20:01:44;;;;;;;0.65;0.38;;;22.10;87.50;;;20.94;64.20;100026.91;10523205;27;97580;-79
2022/06/06 20:06:54;;;;;;;1.25;0.30;;;22.00;89.10;;;20.79;64.94;100022.00;10523754;27;98516;-80
2022/06/06 20:12:16;;;;;;;0.30;0.20;;;21.80;90.30;;;20.72;65.41;100015.91;10526594;27;98284;-80
2022/06/06 20:17:29;;;;;;;0.10;0.08;;;21.70;90.80;;;20.71;65.47;100024.25;10539789;27;97504;-80
2022/06/06 20:22:32;;;;;;;0.30;0.20;;;21.70;90.80;;;20.68;65.54;100019.31;10506770;27;96650;-80
2022/06/06 20:27:44;;;;;;;0.20;0.20;;;21.70;91.10;;;20.58;65.85;100017.25;10537666;27;98450;-90
2022/06/06 20:32:52;;;;;;;0.20;0.20;;;21.60;91.20;;;20.52;66.08;100021.72;10528764;27;98447;-83
2022/06/06 20:38:13;;;;;;;0.65;0.30;;;21.60;91.90;;;20.42;66.43;100012.53;10528992;27;96665;-83
2022/06/06 20:43:31;;;;;;;0.35;0.32;;;21.50;91.90;;;20.35;66.64;100020.75;10512387;27;96681;-83
2022/06/06 20:48:56;;;;;;;0.25;0.08;;;21.40;92.40;;;20.24;67.41;100011.59;10542165;27;96671;-82
2022/06/06 20:54:04;;;;;;;0.10;0.10;;;21.30;93.10;;;20.19;67.28;100011.50;10540346;27;96632;-81
2022/06/06 20:59:22;;;;;;;0.22;0.22;;;21.30;93.50;;;20.13;68.09;100000.81;10522595;27;96793;-82
2022/06/06 21:04:25;;;;;;;0.15;0.15;;;21.20;94.30;;;20.04;68.66;100020.06;10539793;27;96634;-82
2022/06/06 21:09:33;;;;;;;0.47;0.20;;;21.20;95.20;;;19.92;68.71;100011.16;10518488;27;98526;-82
2022/06/06 21:14:37;;;;;;;0.75;0.30;;;21.00;96.10;;;19.75;69.62;100015.59;10514658;27;97379;-82
2022/06/06 21:19:40;;;;;;;0.15;0.15;;;20.90;97.30;;;19.57;70.42;100019.16;10531167;27;97328;-82
2022/06/06 21:24:47;;;;;;;0.47;0.20;;;20.60;98.60;;;19.36;70.65;100025.88;10539254;27;98581;-82
2022/06/06 21:29:50;;;;;;;0.17;0.17;;;20.40;99.90;;;19.17;71.53;100019.72;10526857;27;97081;-81
2022/06/06 21:34:53;;;;;;;0.50;0.25;;;20.20;99.90;;;19.03;71.72;100020.97;10535098;27;98544;-82
2022/06/06 21:40:05;;;;;;;0.47;0.28;;;20.10;99.90;;;18.92;72.16;100017.16;10518882;27;96698;-82
2022/06/06 21:45:09;;;;;;;1.10;0.32;;;20.00;99.90;;;18.90;72.65;100008.50;10546775;27;98843;-81
2022/06/06 21:50:12;;;;;;;0.20;0.13;;;20.00;99.90;;;18.89;72.94;100012.25;10531945;27;96674;-82
2022/06/06 21:55:15;;;;;;;0.20;0.17;;;20.00;99.90;;;18.87;72.92;100006.25;10547774;27;96556;-82
2022/06/06 22:00:43;;;;;;;0.17;0.08;;;19.90;99.90;;;18.84;72.78;100006.72;10545717;27;96678;-83
2022/06/06 22:05:46;;;;;;;0.40;0.20;;;19.90;99.90;;;18.67;72.91;100014.56;10547872;27;96409;-83
2022/06/06 22:10:52;;;;;;;0.38;0.20;;;19.80;99.90;;;18.52;73.33;100013.25;10544784;27;96584;-83
2022/06/06 22:15:55;;;;;;;0.20;0.10;;;19.60;99.90;;;18.34;74.03;100006.81;10536630;27;97088;-82
2022/06/06 22:20:59;;;;;;;0.40;0.30;;;19.40;99.90;;;18.26;74.48;100017.88;10503061;27;96760;-83
2022/06/06 22:26:03;;;;;;;0.30;0.30;;;19.30;99.90;;;18.27;74.47;100003.38;10503590;27;96717;-82